sensor_id;sensor_type;location;lat;lon;timestamp;P1;durP1;ratioP1;P2;durP2;ratioP2
67108;SDS011;54027;50.786;7.058;2023-12-22T00:01:25;15.20;;;3.13;;
67108;SDS011;54027;50.786;7.058;2023-12-22T00:03:50;12.90;;;2.72;;
67108;SDS011;54027;50.786;7.058;2023-12-22T00:06:16;9.50;;;2.08;;
67108;SDS011;54027;50.786;7.058;2023-12-22T00:08:41;18.30;;;2.90;;
67108;SDS011;54027;50.786;7.058;2023-12-22T00:11:07;12.75;;;1.83;;
67108;SDS011;54027;50.786;7.058;2023-12-22T00:13:33;3.00;;;0.70;;
67108;SDS011;54027;50.786;7.058;2023-12-22T00:15:58;2.05;;;0.80;;
67108;SDS011;54027;50.786;7.058;2023-12-22T00:18:25;5.35;;;0.95;;
67108;SDS011;54027;50.786;7.058;2023-12-22T00:20:51;5.75;;;1.00;;
67108;SDS011;54027;50.786;7.058;2023-12-22T00:23:16;5.53;;;0.82;;
67108;SDS011;54027;50.786;7.058;2023-12-22T00:25:41;2.42;;;0.82;;
67108;SDS011;54027;50.786;7.058;2023-12-22T00:28:07;5.75;;;1.15;;
67108;SDS011;54027;50.786;7.058;2023-12-22T00:30:32;6.40;;;1.55;;
67108;SDS011;54027;50.786;7.058;2023-12-22T00:32:58;3.75;;;0.95;;
67108;SDS011;54027;50.786;7.058;2023-12-22T00:35:23;5.38;;;1.20;;
67108;SDS011;54027;50.786;7.058;2023-12-22T00:37:49;5.65;;;1.27;;
67108;SDS011;54027;50.786;7.058;2023-12-22T00:40:14;4.28;;;1.17;;
67108;SDS011;54027;50.786;7.058;2023-12-22T00:42:39;8.48;;;1.55;;
67108;SDS011;54027;50.786;7.058;2023-12-22T00:45:05;5.32;;;1.30;;
67108;SDS011;54027;50.786;7.058;2023-12-22T00:47:31;5.03;;;1.65;;
67108;SDS011;54027;50.786;7.058;2023-12-22T00:49:59;5.57;;;1.10;;
67108;SDS011;54027;50.786;7.058;2023-12-22T00:52:25;6.53;;;1.05;;
67108;SDS011;54027;50.786;7.058;2023-12-22T00:54:51;9.23;;;1.67;;
67108;SDS011;54027;50.786;7.058;2023-12-22T00:57:17;7.07;;;1.92;;
67108;SDS011;54027;50.786;7.058;2023-12-22T00:59:43;9.57;;;1.38;;
67108;SDS011;54027;50.786;7.058;2023-12-22T01:02:12;9.93;;;2.00;;
67108;SDS011;54027;50.786;7.058;2023-12-22T01:04:41;9.52;;;1.55;;
67108;SDS011;54027;50.786;7.058;2023-12-22T01:07:07;9.18;;;1.65;;
67108;SDS011;54027;50.786;7.058;2023-12-22T01:09:34;8.50;;;1.58;;
67108;SDS011;54027;50.786;7.058;2023-12-22T01:11:59;7.57;;;1.50;;
67108;SDS011;54027;50.786;7.058;2023-12-22T01:14:28;8.68;;;1.55;;
67108;SDS011;54027;50.786;7.058;2023-12-22T01:16:53;7.68;;;1.52;;
67108;SDS011;54027;50.786;7.058;2023-12-22T01:19:19;13.65;;;2.10;;
67108;SDS011;54027;50.786;7.058;2023-12-22T01:21:45;11.45;;;2.42;;
67108;SDS011;54027;50.786;7.058;2023-12-22T01:24:11;15.02;;;2.72;;
67108;SDS011;54027;50.786;7.058;2023-12-22T01:26:36;9.32;;;2.63;;
67108;SDS011;54027;50.786;7.058;2023-12-22T01:29:01;9.25;;;2.70;;
67108;SDS011;54027;50.786;7.058;2023-12-22T01:31:27;9.25;;;2.45;;
67108;SDS011;54027;50.786;7.058;2023-12-22T01:33:52;11.13;;;2.45;;
67108;SDS011;54027;50.786;7.058;2023-12-22T01:36:18;10.95;;;2.40;;
67108;SDS011;54027;50.786;7.058;2023-12-22T01:38:43;15.63;;;2.55;;
67108;SDS011;54027;50.786;7.058;2023-12-22T01:41:09;16.63;;;3.42;;
67108;SDS011;54027;50.786;7.058;2023-12-22T01:43:34;12.93;;;2.88;;
67108;SDS011;54027;50.786;7.058;2023-12-22T01:45:59;16.00;;;3.22;;
67108;SDS011;54027;50.786;7.058;2023-12-22T01:48:26;15.57;;;3.30;;
67108;SDS011;54027;50.786;7.058;2023-12-22T01:50:53;15.23;;;2.88;;
67108;SDS011;54027;50.786;7.058;2023-12-22T01:53:20;13.05;;;3.55;;
67108;SDS011;54027;50.786;7.058;2023-12-22T01:55:48;20.40;;;3.38;;
67108;SDS011;54027;50.786;7.058;2023-12-22T01:58:17;19.77;;;4.30;;
67108;SDS011;54027;50.786;7.058;2023-12-22T02:00:44;18.80;;;3.47;;
67108;SDS011;54027;50.786;7.058;2023-12-22T02:03:10;20.63;;;4.43;;
67108;SDS011;54027;50.786;7.058;2023-12-22T02:05:40;16.70;;;3.75;;
67108;SDS011;54027;50.786;7.058;2023-12-22T02:08:06;11.73;;;3.63;;
67108;SDS011;54027;50.786;7.058;2023-12-22T02:10:34;23.33;;;4.35;;
67108;SDS011;54027;50.786;7.058;2023-12-22T02:13:01;17.48;;;4.15;;
67108;SDS011;54027;50.786;7.058;2023-12-22T02:15:27;21.88;;;4.30;;
67108;SDS011;54027;50.786;7.058;2023-12-22T02:22:53;19.83;;;4.00;;
67108;SDS011;54027;50.786;7.058;2023-12-22T02:25:19;21.13;;;4.57;;
67108;SDS011;54027;50.786;7.058;2023-12-22T02:30:16;26.67;;;4.93;;
67108;SDS011;54027;50.786;7.058;2023-12-22T02:32:52;17.98;;;4.05;;
67108;SDS011;54027;50.786;7.058;2023-12-22T02:35:22;36.97;;;6.68;;
67108;SDS011;54027;50.786;7.058;2023-12-22T02:37:50;18.05;;;4.30;;
67108;SDS011;54027;50.786;7.058;2023-12-22T02:40:17;21.80;;;5.03;;
67108;SDS011;54027;50.786;7.058;2023-12-22T02:42:44;18.65;;;4.22;;
67108;SDS011;54027;50.786;7.058;2023-12-22T02:45:14;20.17;;;4.60;;
67108;SDS011;54027;50.786;7.058;2023-12-22T02:47:40;20.38;;;4.15;;
67108;SDS011;54027;50.786;7.058;2023-12-22T02:50:07;15.65;;;3.50;;
67108;SDS011;54027;50.786;7.058;2023-12-22T02:52:33;15.20;;;4.72;;
67108;SDS011;54027;50.786;7.058;2023-12-22T02:54:58;16.33;;;3.20;;
67108;SDS011;54027;50.786;7.058;2023-12-22T02:57:24;15.23;;;3.53;;
67108;SDS011;54027;50.786;7.058;2023-12-22T02:59:55;13.85;;;2.63;;
67108;SDS011;54027;50.786;7.058;2023-12-22T03:02:21;17.35;;;3.55;;
67108;SDS011;54027;50.786;7.058;2023-12-22T03:04:46;15.43;;;2.30;;
67108;SDS011;54027;50.786;7.058;2023-12-22T03:07:12;18.83;;;4.35;;
67108;SDS011;54027;50.786;7.058;2023-12-22T03:09:38;17.83;;;2.78;;
67108;SDS011;54027;50.786;7.058;2023-12-22T03:12:04;12.23;;;2.45;;
67108;SDS011;54027;50.786;7.058;2023-12-22T03:14:31;19.60;;;2.70;;
67108;SDS011;54027;50.786;7.058;2023-12-22T03:17:01;19.35;;;3.80;;
67108;SDS011;54027;50.786;7.058;2023-12-22T03:19:30;14.60;;;3.83;;
67108;SDS011;54027;50.786;7.058;2023-12-22T03:21:59;23.65;;;3.13;;
67108;SDS011;54027;50.786;7.058;2023-12-22T03:24:25;16.08;;;3.08;;
67108;SDS011;54027;50.786;7.058;2023-12-22T03:26:51;21.08;;;3.92;;
67108;SDS011;54027;50.786;7.058;2023-12-22T03:29:17;25.50;;;3.60;;
67108;SDS011;54027;50.786;7.058;2023-12-22T03:31:43;20.88;;;3.38;;
67108;SDS011;54027;50.786;7.058;2023-12-22T03:34:09;17.55;;;2.65;;
67108;SDS011;54027;50.786;7.058;2023-12-22T03:36:34;14.50;;;2.58;;
67108;SDS011;54027;50.786;7.058;2023-12-22T03:39:00;19.73;;;3.22;;
67108;SDS011;54027;50.786;7.058;2023-12-22T03:41:26;13.02;;;3.03;;
67108;SDS011;54027;50.786;7.058;2023-12-22T03:43:52;15.32;;;3.38;;
67108;SDS011;54027;50.786;7.058;2023-12-22T03:46:17;24.20;;;3.05;;
67108;SDS011;54027;50.786;7.058;2023-12-22T03:48:43;19.02;;;2.75;;
67108;SDS011;54027;50.786;7.058;2023-12-22T03:51:09;14.05;;;2.70;;
67108;SDS011;54027;50.786;7.058;2023-12-22T03:53:36;15.02;;;2.72;;
67108;SDS011;54027;50.786;7.058;2023-12-22T03:56:02;10.73;;;2.67;;
67108;SDS011;54027;50.786;7.058;2023-12-22T03:58:28;13.80;;;2.58;;
67108;SDS011;54027;50.786;7.058;2023-12-22T04:00:55;15.27;;;2.72;;
67108;SDS011;54027;50.786;7.058;2023-12-22T04:03:20;23.73;;;2.97;;
67108;SDS011;54027;50.786;7.058;2023-12-22T04:05:45;12.40;;;3.10;;
67108;SDS011;54027;50.786;7.058;2023-12-22T04:08:11;15.57;;;3.05;;
67108;SDS011;54027;50.786;7.058;2023-12-22T04:10:36;14.00;;;2.33;;
67108;SDS011;54027;50.786;7.058;2023-12-22T04:13:02;10.70;;;2.38;;
67108;SDS011;54027;50.786;7.058;2023-12-22T04:15:27;11.57;;;2.58;;
67108;SDS011;54027;50.786;7.058;2023-12-22T04:17:53;12.82;;;2.33;;
67108;SDS011;54027;50.786;7.058;2023-12-22T04:20:18;8.70;;;3.03;;
67108;SDS011;54027;50.786;7.058;2023-12-22T04:22:44;14.88;;;2.28;;
67108;SDS011;54027;50.786;7.058;2023-12-22T04:25:10;14.05;;;2.63;;
67108;SDS011;54027;50.786;7.058;2023-12-22T04:27:35;9.70;;;1.52;;
67108;SDS011;54027;50.786;7.058;2023-12-22T04:30:01;11.65;;;1.98;;
67108;SDS011;54027;50.786;7.058;2023-12-22T04:32:26;13.00;;;2.28;;
67108;SDS011;54027;50.786;7.058;2023-12-22T04:34:52;17.35;;;2.08;;
67108;SDS011;54027;50.786;7.058;2023-12-22T04:37:17;7.20;;;1.73;;
67108;SDS011;54027;50.786;7.058;2023-12-22T04:39:43;11.88;;;2.38;;
67108;SDS011;54027;50.786;7.058;2023-12-22T04:42:08;15.35;;;2.28;;
67108;SDS011;54027;50.786;7.058;2023-12-22T04:44:34;12.45;;;2.13;;
67108;SDS011;54027;50.786;7.058;2023-12-22T04:46:59;11.68;;;2.33;;
67108;SDS011;54027;50.786;7.058;2023-12-22T04:49:28;11.55;;;2.08;;
67108;SDS011;54027;50.786;7.058;2023-12-22T04:51:53;13.77;;;2.50;;
67108;SDS011;54027;50.786;7.058;2023-12-22T04:54:19;10.90;;;2.17;;
67108;SDS011;54027;50.786;7.058;2023-12-22T04:56:44;20.58;;;2.80;;
67108;SDS011;54027;50.786;7.058;2023-12-22T04:59:10;12.55;;;2.67;;
67108;SDS011;54027;50.786;7.058;2023-12-22T05:01:35;10.43;;;2.00;;
67108;SDS011;54027;50.786;7.058;2023-12-22T05:04:00;12.40;;;2.40;;
67108;SDS011;54027;50.786;7.058;2023-12-22T05:06:27;21.20;;;2.75;;
67108;SDS011;54027;50.786;7.058;2023-12-22T05:08:54;13.10;;;2.38;;
67108;SDS011;54027;50.786;7.058;2023-12-22T05:11:22;12.13;;;1.95;;
67108;SDS011;54027;50.786;7.058;2023-12-22T05:13:47;18.13;;;3.33;;
67108;SDS011;54027;50.786;7.058;2023-12-22T05:16:13;16.15;;;3.00;;
67108;SDS011;54027;50.786;7.058;2023-12-22T05:18:39;11.50;;;2.80;;
67108;SDS011;54027;50.786;7.058;2023-12-22T05:21:05;14.35;;;3.10;;
67108;SDS011;54027;50.786;7.058;2023-12-22T05:23:30;13.35;;;3.10;;
67108;SDS011;54027;50.786;7.058;2023-12-22T05:25:55;11.93;;;2.38;;
67108;SDS011;54027;50.786;7.058;2023-12-22T05:28:21;13.98;;;3.08;;
67108;SDS011;54027;50.786;7.058;2023-12-22T05:30:46;13.38;;;2.88;;
67108;SDS011;54027;50.786;7.058;2023-12-22T05:33:12;14.63;;;2.47;;
67108;SDS011;54027;50.786;7.058;2023-12-22T05:35:37;16.25;;;2.92;;
67108;SDS011;54027;50.786;7.058;2023-12-22T05:38:03;16.63;;;2.97;;
67108;SDS011;54027;50.786;7.058;2023-12-22T05:40:30;18.00;;;3.53;;
67108;SDS011;54027;50.786;7.058;2023-12-22T05:42:56;16.58;;;2.83;;
67108;SDS011;54027;50.786;7.058;2023-12-22T05:45:22;12.38;;;2.88;;
67108;SDS011;54027;50.786;7.058;2023-12-22T05:47:49;20.52;;;3.17;;
67108;SDS011;54027;50.786;7.058;2023-12-22T05:50:15;17.23;;;3.08;;
67108;SDS011;54027;50.786;7.058;2023-12-22T05:52:41;15.27;;;3.53;;
67108;SDS011;54027;50.786;7.058;2023-12-22T05:55:07;13.77;;;3.13;;
67108;SDS011;54027;50.786;7.058;2023-12-22T05:57:34;18.52;;;3.22;;
67108;SDS011;54027;50.786;7.058;2023-12-22T05:59:59;13.50;;;2.55;;
67108;SDS011;54027;50.786;7.058;2023-12-22T06:02:25;13.60;;;2.92;;
67108;SDS011;54027;50.786;7.058;2023-12-22T06:04:50;17.25;;;2.30;;
67108;SDS011;54027;50.786;7.058;2023-12-22T06:07:16;16.85;;;2.20;;
67108;SDS011;54027;50.786;7.058;2023-12-22T06:09:41;14.30;;;3.15;;
67108;SDS011;54027;50.786;7.058;2023-12-22T06:12:07;14.52;;;3.50;;
67108;SDS011;54027;50.786;7.058;2023-12-22T06:14:32;11.68;;;2.45;;
67108;SDS011;54027;50.786;7.058;2023-12-22T06:17:00;18.50;;;3.47;;
67108;SDS011;54027;50.786;7.058;2023-12-22T06:19:25;11.77;;;2.92;;
67108;SDS011;54027;50.786;7.058;2023-12-22T06:21:53;15.68;;;2.55;;
67108;SDS011;54027;50.786;7.058;2023-12-22T06:24:19;11.73;;;2.65;;
67108;SDS011;54027;50.786;7.058;2023-12-22T06:26:44;11.20;;;2.25;;
67108;SDS011;54027;50.786;7.058;2023-12-22T06:29:10;11.10;;;2.30;;
67108;SDS011;54027;50.786;7.058;2023-12-22T06:31:35;13.43;;;2.40;;
67108;SDS011;54027;50.786;7.058;2023-12-22T06:34:01;15.45;;;3.00;;
67108;SDS011;54027;50.786;7.058;2023-12-22T06:36:27;12.75;;;2.65;;
67108;SDS011;54027;50.786;7.058;2023-12-22T06:38:53;10.05;;;2.42;;
67108;SDS011;54027;50.786;7.058;2023-12-22T06:41:26;15.88;;;2.40;;
67108;SDS011;54027;50.786;7.058;2023-12-22T06:43:54;13.23;;;3.08;;
67108;SDS011;54027;50.786;7.058;2023-12-22T06:46:20;16.70;;;3.40;;
67108;SDS011;54027;50.786;7.058;2023-12-22T06:48:48;15.23;;;2.88;;
67108;SDS011;54027;50.786;7.058;2023-12-22T06:51:17;13.65;;;2.65;;
67108;SDS011;54027;50.786;7.058;2023-12-22T06:53:44;13.70;;;3.10;;
67108;SDS011;54027;50.786;7.058;2023-12-22T06:56:16;13.15;;;2.75;;
67108;SDS011;54027;50.786;7.058;2023-12-22T06:58:46;7.03;;;2.25;;
67108;SDS011;54027;50.786;7.058;2023-12-22T07:01:26;12.55;;;2.58;;
67108;SDS011;54027;50.786;7.058;2023-12-22T07:03:53;10.80;;;2.67;;
67108;SDS011;54027;50.786;7.058;2023-12-22T07:06:18;6.55;;;2.25;;
67108;SDS011;54027;50.786;7.058;2023-12-22T07:11:43;9.13;;;1.88;;
67108;SDS011;54027;50.786;7.058;2023-12-22T07:14:11;8.70;;;2.10;;
67108;SDS011;54027;50.786;7.058;2023-12-22T07:16:36;6.15;;;1.90;;
67108;SDS011;54027;50.786;7.058;2023-12-22T07:19:03;6.25;;;1.90;;
67108;SDS011;54027;50.786;7.058;2023-12-22T07:21:29;10.23;;;2.08;;
67108;SDS011;54027;50.786;7.058;2023-12-22T07:23:54;8.57;;;2.00;;
67108;SDS011;54027;50.786;7.058;2023-12-22T07:26:20;10.57;;;2.38;;
67108;SDS011;54027;50.786;7.058;2023-12-22T07:28:46;12.50;;;2.05;;
67108;SDS011;54027;50.786;7.058;2023-12-22T07:31:15;8.05;;;2.10;;
67108;SDS011;54027;50.786;7.058;2023-12-22T07:33:40;14.88;;;2.65;;
67108;SDS011;54027;50.786;7.058;2023-12-22T07:36:06;6.28;;;1.80;;
67108;SDS011;54027;50.786;7.058;2023-12-22T07:38:32;12.18;;;2.45;;
67108;SDS011;54027;50.786;7.058;2023-12-22T07:40:58;12.88;;;2.65;;
67108;SDS011;54027;50.786;7.058;2023-12-22T07:43:23;13.40;;;2.40;;
67108;SDS011;54027;50.786;7.058;2023-12-22T07:45:49;12.32;;;2.75;;
67108;SDS011;54027;50.786;7.058;2023-12-22T07:48:17;13.00;;;2.50;;
67108;SDS011;54027;50.786;7.058;2023-12-22T07:50:43;14.07;;;2.75;;
67108;SDS011;54027;50.786;7.058;2023-12-22T07:53:09;15.48;;;3.58;;
67108;SDS011;54027;50.786;7.058;2023-12-22T07:55:35;14.68;;;3.30;;
67108;SDS011;54027;50.786;7.058;2023-12-22T07:58:00;24.98;;;4.82;;
67108;SDS011;54027;50.786;7.058;2023-12-22T08:00:26;22.90;;;4.63;;
67108;SDS011;54027;50.786;7.058;2023-12-22T08:02:55;24.23;;;4.00;;
67108;SDS011;54027;50.786;7.058;2023-12-22T08:05:21;25.63;;;4.50;;
67108;SDS011;54027;50.786;7.058;2023-12-22T08:07:46;24.63;;;4.60;;
67108;SDS011;54027;50.786;7.058;2023-12-22T08:10:12;24.02;;;4.43;;
67108;SDS011;54027;50.786;7.058;2023-12-22T08:12:37;28.80;;;5.03;;
67108;SDS011;54027;50.786;7.058;2023-12-22T08:15:03;32.33;;;5.28;;
67108;SDS011;54027;50.786;7.058;2023-12-22T08:17:29;22.98;;;5.32;;
67108;SDS011;54027;50.786;7.058;2023-12-22T08:19:54;17.92;;;3.83;;
67108;SDS011;54027;50.786;7.058;2023-12-22T08:22:21;31.17;;;5.00;;
67108;SDS011;54027;50.786;7.058;2023-12-22T08:24:47;28.88;;;5.00;;
67108;SDS011;54027;50.786;7.058;2023-12-22T08:27:13;17.63;;;4.15;;
67108;SDS011;54027;50.786;7.058;2023-12-22T08:29:38;20.25;;;4.15;;
67108;SDS011;54027;50.786;7.058;2023-12-22T08:32:04;24.95;;;6.43;;
67108;SDS011;54027;50.786;7.058;2023-12-22T08:34:30;20.48;;;4.28;;
67108;SDS011;54027;50.786;7.058;2023-12-22T08:36:55;21.27;;;4.38;;
67108;SDS011;54027;50.786;7.058;2023-12-22T08:39:21;28.95;;;6.30;;
67108;SDS011;54027;50.786;7.058;2023-12-22T08:41:46;24.10;;;4.80;;
67108;SDS011;54027;50.786;7.058;2023-12-22T08:44:13;21.40;;;4.43;;
67108;SDS011;54027;50.786;7.058;2023-12-22T08:46:41;23.08;;;4.10;;
67108;SDS011;54027;50.786;7.058;2023-12-22T08:49:06;18.10;;;3.67;;
67108;SDS011;54027;50.786;7.058;2023-12-22T08:51:33;16.85;;;3.72;;
67108;SDS011;54027;50.786;7.058;2023-12-22T08:54:01;18.02;;;3.63;;
67108;SDS011;54027;50.786;7.058;2023-12-22T08:56:26;22.73;;;4.22;;
67108;SDS011;54027;50.786;7.058;2023-12-22T08:58:53;17.38;;;4.15;;
67108;SDS011;54027;50.786;7.058;2023-12-22T09:01:24;20.38;;;4.07;;
67108;SDS011;54027;50.786;7.058;2023-12-22T09:03:50;25.88;;;4.47;;
67108;SDS011;54027;50.786;7.058;2023-12-22T09:06:20;17.85;;;4.25;;
67108;SDS011;54027;50.786;7.058;2023-12-22T09:08:47;23.73;;;4.57;;
67108;SDS011;54027;50.786;7.058;2023-12-22T09:11:15;17.45;;;3.90;;
67108;SDS011;54027;50.786;7.058;2023-12-22T09:13:41;22.77;;;4.65;;
67108;SDS011;54027;50.786;7.058;2023-12-22T09:16:07;14.77;;;3.50;;
67108;SDS011;54027;50.786;7.058;2023-12-22T09:18:33;18.08;;;3.88;;
67108;SDS011;54027;50.786;7.058;2023-12-22T09:20:59;13.50;;;3.88;;
67108;SDS011;54027;50.786;7.058;2023-12-22T09:23:25;12.80;;;3.97;;
67108;SDS011;54027;50.786;7.058;2023-12-22T09:25:50;18.90;;;3.70;;
67108;SDS011;54027;50.786;7.058;2023-12-22T09:28:16;22.60;;;3.38;;
67108;SDS011;54027;50.786;7.058;2023-12-22T09:30:41;16.52;;;3.47;;
67108;SDS011;54027;50.786;7.058;2023-12-22T09:33:09;15.30;;;3.75;;
67108;SDS011;54027;50.786;7.058;2023-12-22T09:35:35;20.20;;;3.88;;
67108;SDS011;54027;50.786;7.058;2023-12-22T09:38:00;17.23;;;3.65;;
67108;SDS011;54027;50.786;7.058;2023-12-22T09:40:26;22.42;;;4.60;;
67108;SDS011;54027;50.786;7.058;2023-12-22T09:42:54;15.60;;;3.80;;
67108;SDS011;54027;50.786;7.058;2023-12-22T09:45:20;20.15;;;3.50;;
67108;SDS011;54027;50.786;7.058;2023-12-22T09:47:47;17.63;;;3.17;;
67108;SDS011;54027;50.786;7.058;2023-12-22T09:50:14;19.13;;;3.95;;
67108;SDS011;54027;50.786;7.058;2023-12-22T09:52:41;11.07;;;2.38;;
67108;SDS011;54027;50.786;7.058;2023-12-22T09:55:09;16.42;;;3.05;;
67108;SDS011;54027;50.786;7.058;2023-12-22T09:57:35;10.70;;;2.85;;
67108;SDS011;54027;50.786;7.058;2023-12-22T10:00:02;10.57;;;3.08;;
67108;SDS011;54027;50.786;7.058;2023-12-22T10:02:31;8.85;;;2.60;;
67108;SDS011;54027;50.786;7.058;2023-12-22T10:04:58;11.38;;;2.55;;
67108;SDS011;54027;50.786;7.058;2023-12-22T10:07:24;14.88;;;2.85;;
67108;SDS011;54027;50.786;7.058;2023-12-22T10:09:50;11.68;;;2.97;;
67108;SDS011;54027;50.786;7.058;2023-12-22T10:12:17;9.32;;;2.70;;
67108;SDS011;54027;50.786;7.058;2023-12-22T10:14:44;7.07;;;1.83;;
67108;SDS011;54027;50.786;7.058;2023-12-22T10:17:12;6.97;;;1.77;;
67108;SDS011;54027;50.786;7.058;2023-12-22T10:19:38;12.95;;;2.05;;
67108;SDS011;54027;50.786;7.058;2023-12-22T10:22:04;9.85;;;1.55;;
67108;SDS011;54027;50.786;7.058;2023-12-22T10:27:09;4.72;;;1.30;;
67108;SDS011;54027;50.786;7.058;2023-12-22T10:29:35;6.55;;;1.30;;
67108;SDS011;54027;50.786;7.058;2023-12-22T10:32:01;6.90;;;1.35;;
67108;SDS011;54027;50.786;7.058;2023-12-22T10:34:28;7.00;;;1.88;;
67108;SDS011;54027;50.786;7.058;2023-12-22T10:36:54;4.75;;;1.40;;
67108;SDS011;54027;50.786;7.058;2023-12-22T10:39:20;6.55;;;1.55;;
67108;SDS011;54027;50.786;7.058;2023-12-22T10:41:48;7.50;;;1.70;;
67108;SDS011;54027;50.786;7.058;2023-12-22T10:44:14;4.60;;;1.60;;
67108;SDS011;54027;50.786;7.058;2023-12-22T10:46:42;4.82;;;1.42;;
67108;SDS011;54027;50.786;7.058;2023-12-22T10:49:08;4.22;;;1.48;;
67108;SDS011;54027;50.786;7.058;2023-12-22T10:51:33;4.05;;;1.48;;
67108;SDS011;54027;50.786;7.058;2023-12-22T10:53:59;4.82;;;1.30;;
67108;SDS011;54027;50.786;7.058;2023-12-22T10:56:25;6.75;;;1.42;;
67108;SDS011;54027;50.786;7.058;2023-12-22T10:58:51;3.38;;;1.13;;
67108;SDS011;54027;50.786;7.058;2023-12-22T11:01:21;6.30;;;1.60;;
67108;SDS011;54027;50.786;7.058;2023-12-22T11:03:50;5.88;;;2.10;;
67108;SDS011;54027;50.786;7.058;2023-12-22T11:06:16;5.97;;;1.85;;
67108;SDS011;54027;50.786;7.058;2023-12-22T11:08:43;6.28;;;1.67;;
67108;SDS011;54027;50.786;7.058;2023-12-22T11:11:26;4.50;;;1.25;;
67108;SDS011;54027;50.786;7.058;2023-12-22T11:13:59;4.60;;;1.33;;
67108;SDS011;54027;50.786;7.058;2023-12-22T11:16:27;3.53;;;1.20;;
67108;SDS011;54027;50.786;7.058;2023-12-22T11:18:54;4.75;;;1.52;;
67108;SDS011;54027;50.786;7.058;2023-12-22T11:21:23;3.10;;;1.00;;
67108;SDS011;54027;50.786;7.058;2023-12-22T11:23:50;4.03;;;1.45;;
67108;SDS011;54027;50.786;7.058;2023-12-22T11:26:17;3.10;;;1.50;;
67108;SDS011;54027;50.786;7.058;2023-12-22T11:28:44;6.57;;;1.80;;
67108;SDS011;54027;50.786;7.058;2023-12-22T11:31:11;4.90;;;1.98;;
67108;SDS011;54027;50.786;7.058;2023-12-22T11:33:37;3.85;;;1.90;;
67108;SDS011;54027;50.786;7.058;2023-12-22T11:36:08;4.65;;;1.90;;
67108;SDS011;54027;50.786;7.058;2023-12-22T11:38:35;5.75;;;2.08;;
67108;SDS011;54027;50.786;7.058;2023-12-22T11:41:04;5.90;;;1.80;;
67108;SDS011;54027;50.786;7.058;2023-12-22T11:43:31;6.45;;;1.90;;
67108;SDS011;54027;50.786;7.058;2023-12-22T11:46:01;4.47;;;1.75;;
67108;SDS011;54027;50.786;7.058;2023-12-22T11:48:28;4.70;;;1.73;;
67108;SDS011;54027;50.786;7.058;2023-12-22T11:50:54;4.28;;;1.65;;
67108;SDS011;54027;50.786;7.058;2023-12-22T11:53:20;8.60;;;1.85;;
67108;SDS011;54027;50.786;7.058;2023-12-22T11:55:56;5.70;;;2.22;;
67108;SDS011;54027;50.786;7.058;2023-12-22T12:01:10;3.60;;;1.50;;
67108;SDS011;54027;50.786;7.058;2023-12-22T12:03:41;5.18;;;2.75;;
67108;SDS011;54027;50.786;7.058;2023-12-22T12:06:15;4.97;;;1.23;;
67108;SDS011;54027;50.786;7.058;2023-12-22T12:08:44;3.65;;;1.23;;
67108;SDS011;54027;50.786;7.058;2023-12-22T12:11:09;2.50;;;1.10;;
67108;SDS011;54027;50.786;7.058;2023-12-22T12:13:35;2.28;;;1.42;;
67108;SDS011;54027;50.786;7.058;2023-12-22T12:16:06;6.43;;;1.70;;
67108;SDS011;54027;50.786;7.058;2023-12-22T12:18:32;3.75;;;1.40;;
67108;SDS011;54027;50.786;7.058;2023-12-22T12:20:59;2.80;;;1.20;;
67108;SDS011;54027;50.786;7.058;2023-12-22T12:23:26;2.63;;;1.20;;
67108;SDS011;54027;50.786;7.058;2023-12-22T12:25:55;5.45;;;1.23;;
67108;SDS011;54027;50.786;7.058;2023-12-22T12:28:32;3.97;;;1.23;;
67108;SDS011;54027;50.786;7.058;2023-12-22T12:30:59;2.58;;;1.15;;
67108;SDS011;54027;50.786;7.058;2023-12-22T12:33:27;6.38;;;1.45;;
67108;SDS011;54027;50.786;7.058;2023-12-22T12:35:54;6.95;;;1.77;;
67108;SDS011;54027;50.786;7.058;2023-12-22T12:38:23;2.15;;;1.00;;
67108;SDS011;54027;50.786;7.058;2023-12-22T12:41:10;4.18;;;1.20;;
67108;SDS011;54027;50.786;7.058;2023-12-22T12:43:40;7.22;;;2.35;;
67108;SDS011;54027;50.786;7.058;2023-12-22T12:46:08;2.10;;;1.10;;
67108;SDS011;54027;50.786;7.058;2023-12-22T12:48:34;4.82;;;1.45;;
67108;SDS011;54027;50.786;7.058;2023-12-22T12:51:05;4.43;;;1.00;;
67108;SDS011;54027;50.786;7.058;2023-12-22T12:53:31;2.45;;;1.20;;
67108;SDS011;54027;50.786;7.058;2023-12-22T12:56:00;5.13;;;1.10;;
67108;SDS011;54027;50.786;7.058;2023-12-22T12:58:29;5.57;;;1.65;;
67108;SDS011;54027;50.786;7.058;2023-12-22T13:01:08;8.10;;;1.00;;
67108;SDS011;54027;50.786;7.058;2023-12-22T13:03:53;5.30;;;1.40;;
67108;SDS011;54027;50.786;7.058;2023-12-22T13:06:20;3.80;;;1.40;;
67108;SDS011;54027;50.786;7.058;2023-12-22T13:08:52;4.60;;;1.70;;
67108;SDS011;54027;50.786;7.058;2023-12-22T13:11:27;5.63;;;1.42;;
67108;SDS011;54027;50.786;7.058;2023-12-22T13:13:56;3.30;;;1.35;;
67108;SDS011;54027;50.786;7.058;2023-12-22T13:16:22;2.28;;;1.20;;
67108;SDS011;54027;50.786;7.058;2023-12-22T13:18:54;2.22;;;1.23;;
67108;SDS011;54027;50.786;7.058;2023-12-22T13:21:20;2.67;;;1.05;;
67108;SDS011;54027;50.786;7.058;2023-12-22T13:23:46;4.32;;;1.00;;
67108;SDS011;54027;50.786;7.058;2023-12-22T13:26:18;4.13;;;1.20;;
67108;SDS011;54027;50.786;7.058;2023-12-22T13:28:44;3.60;;;1.10;;
67108;SDS011;54027;50.786;7.058;2023-12-22T13:31:10;2.75;;;1.13;;
67108;SDS011;54027;50.786;7.058;2023-12-22T13:33:39;6.15;;;1.63;;
67108;SDS011;54027;50.786;7.058;2023-12-22T13:36:07;7.03;;;1.55;;
67108;SDS011;54027;50.786;7.058;2023-12-22T13:38:33;7.88;;;1.80;;
67108;SDS011;54027;50.786;7.058;2023-12-22T13:41:00;6.60;;;2.55;;
67108;SDS011;54027;50.786;7.058;2023-12-22T13:43:29;7.63;;;2.47;;
67108;SDS011;54027;50.786;7.058;2023-12-22T13:45:55;5.65;;;2.17;;
67108;SDS011;54027;50.786;7.058;2023-12-22T13:48:21;6.32;;;2.13;;
67108;SDS011;54027;50.786;7.058;2023-12-22T13:50:57;4.10;;;1.77;;
67108;SDS011;54027;50.786;7.058;2023-12-22T13:53:23;5.82;;;2.00;;
67108;SDS011;54027;50.786;7.058;2023-12-22T13:55:59;5.65;;;1.90;;
67108;SDS011;54027;50.786;7.058;2023-12-22T13:58:25;6.85;;;1.70;;
67108;SDS011;54027;50.786;7.058;2023-12-22T14:00:52;5.25;;;1.52;;
67108;SDS011;54027;50.786;7.058;2023-12-22T14:03:18;5.55;;;1.73;;
67108;SDS011;54027;50.786;7.058;2023-12-22T14:05:50;3.78;;;1.58;;
67108;SDS011;54027;50.786;7.058;2023-12-22T14:08:18;3.42;;;1.50;;
67108;SDS011;54027;50.786;7.058;2023-12-22T14:10:47;5.03;;;2.05;;
67108;SDS011;54027;50.786;7.058;2023-12-22T14:13:16;5.63;;;1.35;;
67108;SDS011;54027;50.786;7.058;2023-12-22T14:15:42;3.60;;;1.70;;
67108;SDS011;54027;50.786;7.058;2023-12-22T14:18:08;6.70;;;1.73;;
67108;SDS011;54027;50.786;7.058;2023-12-22T14:20:34;6.38;;;1.65;;
67108;SDS011;54027;50.786;7.058;2023-12-22T14:22:59;5.10;;;1.70;;
67108;SDS011;54027;50.786;7.058;2023-12-22T14:25:25;5.07;;;1.60;;
67108;SDS011;54027;50.786;7.058;2023-12-22T14:27:52;9.00;;;2.03;;
67108;SDS011;54027;50.786;7.058;2023-12-22T14:30:22;10.38;;;2.10;;
67108;SDS011;54027;50.786;7.058;2023-12-22T14:32:47;6.38;;;1.60;;
67108;SDS011;54027;50.786;7.058;2023-12-22T14:35:13;6.15;;;2.00;;
67108;SDS011;54027;50.786;7.058;2023-12-22T14:37:38;10.68;;;1.77;;
67108;SDS011;54027;50.786;7.058;2023-12-22T14:40:04;5.55;;;1.45;;
67108;SDS011;54027;50.786;7.058;2023-12-22T14:42:31;4.47;;;1.50;;
67108;SDS011;54027;50.786;7.058;2023-12-22T14:44:57;6.43;;;1.65;;
67108;SDS011;54027;50.786;7.058;2023-12-22T14:47:22;10.73;;;2.65;;
67108;SDS011;54027;50.786;7.058;2023-12-22T14:49:48;4.65;;;1.70;;
67108;SDS011;54027;50.786;7.058;2023-12-22T14:52:13;6.60;;;1.95;;
67108;SDS011;54027;50.786;7.058;2023-12-22T14:54:39;4.65;;;1.60;;